Time;durP1;ratioP1;P1;durP2;ratioP2;P2;SDS_P1;SDS_P2;PMS_P1;PMS_P2;Temp;Humidity;BMP_temperature;BMP_pressure;BME280_temperature;BME280_humidity;BME280_pressure;Samples;Min_cycle;Max_cycle;Signal;HPM_P1;HPM_P2
2023/03/02 00:03:03;;;;;;;104.30;52.20;;;;;;;1.52;59.93;99894.03;235299;1192;138511;-70
2023/03/02 00:08:08;;;;;;;101.40;53.10;;;;;;;1.50;59.98;99895.11;235401;1193;138662;-69
2023/03/02 00:13:12;;;;;;;98.70;53.30;;;;;;;1.50;60.04;99897.05;235488;1196;138940;-69
2023/03/02 00:18:16;;;;;;;98.20;52.60;;;;;;;1.49;60.19;99891.10;235407;1196;138882;-69
2023/03/02 00:23:19;;;;;;;100.70;53.20;;;;;;;1.47;60.15;99885.20;235387;1196;138567;-68
2023/03/02 00:28:22;;;;;;;100.40;53.60;;;;;;;1.47;60.42;99885.17;235318;1196;139525;-69
2023/03/02 00:33:25;;;;;;;101.30;54.60;;;;;;;1.49;60.29;99883.40;235562;1195;141377;-68
2023/03/02 00:38:29;;;;;;;102.40;55.10;;;;;;;1.49;60.43;99881.14;235215;1192;138586;-67
2023/03/02 00:43:32;;;;;;;106.10;56.00;;;;;;;1.50;60.28;99877.98;235186;1195;138861;-69
2023/03/02 00:48:35;;;;;;;104.20;55.20;;;;;;;1.49;60.27;99872.91;235568;1193;138645;-69
2023/03/02 00:53:39;;;;;;;104.30;53.30;;;;;;;1.47;60.21;99872.05;235457;1192;138992;-68
2023/03/02 00:58:43;;;;;;;101.30;51.60;;;;;;;1.41;60.30;99871.60;235157;1193;139082;-69
2023/03/02 01:03:47;;;;;;;101.30;52.20;;;;;;;1.36;60.37;99862.58;235516;1193;140479;-68
2023/03/02 01:08:51;;;;;;;103.70;52.40;;;;;;;1.35;60.47;99863.29;235320;1195;138487;-68
2023/03/02 01:13:54;;;;;;;95.40;50.60;;;;;;;1.33;60.41;99860.86;235276;1193;138507;-68
2023/03/02 01:18:58;;;;;;;96.90;49.50;;;;;;;1.28;60.47;99857.06;235291;1196;139383;-69
2023/03/02 01:24:01;;;;;;;88.00;48.60;;;;;;;1.23;60.51;99857.31;235358;1192;138914;-69
2023/03/02 01:29:05;;;;;;;95.00;50.80;;;;;;;1.17;60.42;99859.80;235145;1191;139261;-69
2023/03/02 01:34:08;;;;;;;97.20;51.40;;;;;;;1.14;60.67;99857.03;235293;1195;141563;-69
2023/03/02 01:39:15;;;;;;;97.30;51.00;;;;;;;1.15;60.57;99855.64;235373;1194;138663;-69
2023/03/02 01:44:40;;;;;;;95.90;49.80;;;;;;;1.14;60.73;99847.61;235204;1195;139209;-69
2023/03/02 01:49:48;;;;;;;97.30;49.90;;;;;;;1.09;60.68;99844.69;235103;1195;138980;-68
2023/03/02 01:54:55;;;;;;;94.50;49.20;;;;;;;1.08;60.76;99834.05;235374;1193;139944;-68
2023/03/02 02:00:07;;;;;;;94.80;51.70;;;;;;;1.06;60.54;99829.17;235238;1193;140573;-67
2023/03/02 02:05:22;;;;;;;97.50;50.20;;;;;;;1.03;60.67;99818.90;234645;1195;145030;-69
2023/03/02 02:10:26;;;;;;;98.80;47.30;;;;;;;1.09;60.63;99815.16;235122;1194;138499;-69
2023/03/02 02:15:29;;;;;;;92.00;48.50;;;;;;;1.08;60.67;99815.17;234991;1198;139151;-69
2023/03/02 02:20:39;;;;;;;93.00;48.90;;;;;;;1.04;60.69;99813.13;234911;1195;139711;-68
2023/03/02 02:26:12;;;;;;;94.30;50.10;;;;;;;0.95;60.74;99807.45;234936;1197;138930;-68
2023/03/02 02:31:25;;;;;;;90.70;49.70;;;;;;;0.93;60.94;99804.52;235006;1198;138873;-68
2023/03/02 02:36:34;;;;;;;99.40;51.50;;;;;;;0.92;60.82;99796.48;235088;1195;139150;-68
2023/03/02 02:41:42;;;;;;;91.00;48.10;;;;;;;0.90;60.78;99798.08;235081;1193;139623;-69
2023/03/02 02:46:45;;;;;;;;;;;;;;;0.82;60.90;99793.27;235292;1197;138568;-68
2023/03/02 02:51:48;;;;;;;100.30;48.80;;;;;;;0.73;60.98;99791.96;235209;1198;124830;-67
2023/03/02 02:56:53;;;;;;;99.90;51.20;;;;;;;0.67;61.05;99789.23;235121;1197;138752;-69
2023/03/02 03:01:57;;;;;;;88.60;46.60;;;;;;;0.64;61.13;99786.11;235054;1193;138443;-68
2023/03/02 03:07:04;;;;;;;95.20;48.90;;;;;;;0.62;61.03;99783.52;235022;1193;138699;-68
2023/03/02 03:12:23;;;;;;;82.80;45.20;;;;;;;0.58;61.27;99778.49;235043;1198;139074;-69
2023/03/02 03:17:27;;;;;;;91.10;49.20;;;;;;;0.57;61.47;99772.56;235069;1197;139665;-68
2023/03/02 03:22:37;;;;;;;90.40;45.70;;;;;;;0.61;61.50;99767.99;235073;1193;138899;-68
2023/03/02 03:27:41;;;;;;;90.10;47.40;;;;;;;0.62;61.43;99763.96;235058;1193;138659;-67
2023/03/02 03:32:45;;;;;;;84.30;46.00;;;;;;;0.65;61.44;99759.23;235146;1198;139294;-68
2023/03/02 03:37:50;;;;;;;85.40;45.10;;;;;;;0.67;61.28;99753.60;234946;1197;138519;-68
2023/03/02 03:42:54;;;;;;;79.90;43.80;;;;;;;0.65;61.47;99748.91;235075;1193;140182;-69
2023/03/02 03:47:58;;;;;;;85.60;45.50;;;;;;;0.63;61.65;99753.48;235093;1197;138536;-69
2023/03/02 03:53:02;;;;;;;81.40;45.20;;;;;;;0.63;61.67;99748.23;235181;1193;138916;-69
2023/03/02 03:58:06;;;;;;;86.10;45.50;;;;;;;0.61;61.74;99745.99;235204;1193;139413;-70
2023/03/02 04:03:10;;;;;;;80.50;45.00;;;;;;;0.53;61.75;99748.68;235108;1197;139111;-68
2023/03/02 04:08:13;;;;;;;85.70;45.50;;;;;;;0.52;61.81;99748.36;235106;1196;139866;-68
2023/03/02 04:13:16;;;;;;;87.10;45.90;;;;;;;0.49;61.91;99748.20;235069;1193;138706;-68
2023/03/02 04:18:20;;;;;;;91.50;46.40;;;;;;;0.49;62.01;99745.76;235053;1193;138601;-68
2023/03/02 04:23:23;;;;;;;84.80;45.10;;;;;;;0.43;61.91;99747.21;235124;1194;139318;-69
2023/03/02 04:28:26;;;;;;;82.40;44.20;;;;;;;0.40;61.77;99748.28;235054;1194;139420;-69
2023/03/02 04:33:30;;;;;;;82.10;42.30;;;;;;;0.42;61.99;99741.48;235063;1199;138552;-69
2023/03/02 04:38:34;;;;;;;74.40;41.40;;;;;;;0.48;61.95;99740.54;234141;1197;138594;-69
2023/03/02 04:43:37;;;;;;;79.90;41.80;;;;;;;0.45;62.05;99739.87;235019;1193;139047;-69
2023/03/02 04:48:40;;;;;;;76.70;40.90;;;;;;;0.45;62.02;99733.92;235089;1193;138961;-68
2023/03/02 04:53:44;;;;;;;86.20;42.90;;;;;;;0.41;62.26;99732.57;235015;1196;138729;-68
2023/03/02 04:58:48;;;;;;;85.90;44.50;;;;;;;0.41;62.28;99727.86;235212;1193;138441;-69
2023/03/02 05:03:51;;;;;;;85.80;45.50;;;;;;;0.40;62.20;99733.45;235119;1193;138766;-69
2023/03/02 05:08:58;;;;;;;91.10;47.60;;;;;;;0.37;62.24;99736.80;234917;1194;138911;-68
2023/03/02 05:14:05;;;;;;;87.90;46.50;;;;;;;0.39;61.96;99741.49;234918;1195;139553;-69
2023/03/02 05:19:10;;;;;;;91.10;46.40;;;;;;;0.37;61.97;99749.19;234958;1197;139747;-68
2023/03/02 05:24:14;;;;;;;81.70;44.90;;;;;;;0.36;62.00;99748.33;235127;1196;139628;-68
2023/03/02 05:29:17;;;;;;;82.00;43.10;;;;;;;0.33;61.99;99750.45;234006;1197;138397;-68
2023/03/02 05:34:20;;;;;;;85.70;46.20;;;;;;;0.28;62.12;99752.77;235139;1196;139055;-68
2023/03/02 05:39:24;;;;;;;81.80;43.40;;;;;;;0.25;62.19;99749.13;235039;1198;139150;-67
2023/03/02 05:44:27;;;;;;;79.90;43.20;;;;;;;0.25;62.49;99751.23;235183;1193;138777;-66
2023/03/02 05:49:31;;;;;;;167.10;89.30;;;;;;;0.38;62.27;99750.75;235039;1196;138891;-66
2023/03/02 05:54:35;;;;;;;128.10;71.20;;;;;;;0.39;61.94;99752.50;235025;1194;139686;-66
2023/03/02 05:59:38;;;;;;;78.70;43.60;;;;;;;0.41;61.98;99748.63;235077;1193;138904;-65
2023/03/02 06:04:43;;;;;;;77.60;40.10;;;;;;;0.51;61.98;99753.77;235091;1194;138695;-66
2023/03/02 06:09:47;;;;;;;78.00;41.30;;;;;;;0.50;61.67;99756.92;234940;1193;138702;-66
2023/03/02 06:14:52;;;;;;;;;;;;;;;0.51;61.99;99763.73;235027;1194;138578;-65
2023/03/02 06:20:09;;;;;;;82.80;41.40;;;;;;;0.57;62.13;99759.46;234540;1196;125053;-66
2023/03/02 06:25:17;;;;;;;76.60;40.60;;;;;;;0.71;62.09;99760.73;235059;1196;139129;-67
2023/03/02 06:30:22;;;;;;;77.60;40.50;;;;;;;0.82;62.02;99754.32;235026;1194;139827;-67
2023/03/02 06:36:02;;;;;;;74.60;38.20;;;;;;;1.07;64.28;99751.39;235360;1198;138962;-66
2023/03/02 06:41:05;;;;;;;75.50;38.80;;;;;;;2.07;61.59;99751.41;235053;1192;139586;-66
2023/03/02 06:46:09;;;;;;;73.30;38.50;;;;;;;1.97;60.56;99759.45;235007;1196;139588;-66
2023/03/02 06:51:13;;;;;;;70.20;38.10;;;;;;;1.93;60.55;99763.68;235028;1196;138875;-66
2023/03/02 06:56:16;;;;;;;71.00;39.20;;;;;;;1.97;60.54;99772.05;235102;1197;138894;-67
2023/03/02 07:01:19;;;;;;;61.00;33.70;;;;;;;2.06;60.61;99771.71;235034;1196;139311;-69
2023/03/02 07:06:23;;;;;;;59.10;32.50;;;;;;;2.17;60.30;99774.00;235118;1196;138979;-67
2023/03/02 07:11:26;;;;;;;61.00;32.60;;;;;;;2.23;60.03;99774.95;234929;1196;139127;-66
2023/03/02 07:16:30;;;;;;;57.80;31.70;;;;;;;2.27;59.31;99776.28;235105;1198;138811;-66
2023/03/02 07:21:33;;;;;;;66.80;33.10;;;;;;;2.40;59.80;99777.45;234979;1193;138897;-68
2023/03/02 07:26:36;;;;;;;58.80;31.50;;;;;;;2.54;59.37;99771.09;235063;1193;138764;-66
2023/03/02 07:31:43;;;;;;;56.00;31.70;;;;;;;2.62;59.26;99773.58;235153;1193;139403;-67
2023/03/02 07:36:46;;;;;;;58.10;31.00;;;;;;;2.77;59.18;99764.37;234939;1199;139180;-67
2023/03/02 07:41:49;;;;;;;57.20;32.50;;;;;;;2.95;58.53;99764.55;235123;1193;138563;-66
2023/03/02 07:46:55;;;;;;;63.00;34.90;;;;;;;3.13;58.50;99761.73;235185;1195;138486;-66
2023/03/02 07:51:59;;;;;;;64.40;35.00;;;;;;;3.32;57.99;99758.55;234996;1196;138440;-67
2023/03/02 07:57:02;;;;;;;64.00;35.10;;;;;;;3.49;57.84;99761.34;234966;1196;138983;-67
2023/03/02 08:02:06;;;;;;;68.80;35.80;;;;;;;3.65;57.36;99761.17;234997;1196;138635;-67
2023/03/02 08:07:09;;;;;;;90.60;53.80;;;;;;;3.82;57.80;99763.24;235069;1193;139168;-67
2023/03/02 08:12:13;;;;;;;68.20;36.50;;;;;;;4.02;57.09;99763.99;235087;1198;140463;-66
2023/03/02 08:17:16;;;;;;;68.20;37.10;;;;;;;4.14;56.65;99758.11;235108;1193;139053;-67
2023/03/02 08:22:19;;;;;;;69.80;36.90;;;;;;;4.26;56.27;99760.80;235083;1194;138730;-67
2023/03/02 08:27:23;;;;;;;62.00;34.80;;;;;;;4.40;56.08;99757.99;235191;1196;139351;-67
2023/03/02 08:32:26;;;;;;;53.90;31.90;;;;;;;4.55;55.84;99747.58;235113;1194;139458;-66
2023/03/02 08:37:30;;;;;;;57.60;30.80;;;;;;;4.72;54.77;99745.03;234964;1196;138694;-69
2023/03/02 08:42:33;;;;;;;50.20;29.50;;;;;;;4.87;54.12;99734.77;234948;1196;139958;-66
2023/03/02 08:47:37;;;;;;;55.50;31.60;;;;;;;5.01;53.56;99728.92;235053;1193;139510;-67
2023/03/02 08:52:40;;;;;;;145.40;78.90;;;;;;;5.17;53.90;99731.26;235065;1196;138601;-67
2023/03/02 08:57:44;;;;;;;61.00;34.10;;;;;;;5.41;53.79;99731.27;235091;1193;139364;-68
2023/03/02 09:02:47;;;;;;;62.40;33.20;;;;;;;5.57;53.21;99725.01;234985;1194;139858;-67
2023/03/02 09:07:51;;;;;;;65.60;33.70;;;;;;;5.70;52.90;99725.65;234908;1196;138996;-67
2023/03/02 09:12:54;;;;;;;58.30;32.60;;;;;;;5.85;52.04;99719.88;235073;1196;139594;-68
2023/03/02 09:17:57;;;;;;;61.50;33.40;;;;;;;6.00;51.92;99719.63;235098;1193;138441;-68
2023/03/02 09:23:00;;;;;;;63.60;33.90;;;;;;;6.20;51.66;99713.16;235033;1193;138828;-69
2023/03/02 09:28:04;;;;;;;54.00;32.30;;;;;;;6.41;51.96;99705.38;235165;1195;138963;-67
2023/03/02 09:33:07;;;;;;;224.80;134.40;;;;;;;6.97;54.08;99704.28;235088;1196;138702;-67
2023/03/02 09:38:14;;;;;;;58.40;33.70;;;;;;;7.31;50.33;99699.64;234928;1193;139265;-67
2023/03/02 09:43:44;;;;;;;54.50;32.70;;;;;;;7.31;49.43;99695.08;234980;1196;140177;-67
2023/03/02 09:49:09;;;;;;;51.10;29.90;;;;;;;7.42;48.56;99689.38;235015;1196;139239;-67
2023/03/02 09:54:15;;;;;;;52.10;29.80;;;;;;;7.50;48.29;99691.52;234913;1198;139576;-67
2023/03/02 09:59:25;;;;;;;51.00;29.30;;;;;;;7.61;48.11;99684.19;234933;1193;140232;-68
2023/03/02 10:04:37;;;;;;;48.70;28.30;;;;;;;7.73;47.21;99683.38;235073;1194;139043;-67
2023/03/02 10:09:42;;;;;;;48.90;26.30;;;;;;;7.91;46.86;99683.00;234936;1196;139448;-66
2023/03/02 10:14:56;;;;;;;42.00;26.30;;;;;;;8.08;46.11;99675.23;234894;1196;139818;-65
2023/03/02 10:20:04;;;;;;;122.70;79.60;;;;;;;8.26;45.35;99670.91;235025;1196;139344;-66
2023/03/02 10:25:30;;;;;;;52.80;31.90;;;;;;;8.55;45.13;99666.70;234935;1193;138921;-68
2023/03/02 10:30:36;;;;;;;38.40;23.40;;;;;;;8.76;42.92;99658.00;235106;1194;139245;-68
2023/03/02 10:35:48;;;;;;;50.90;26.80;;;;;;;8.96;42.08;99653.05;235146;1193;138747;-65
2023/03/02 10:41:05;;;;;;;42.60;24.10;;;;;;;9.23;41.44;99650.73;234950;1196;139316;-65
2023/03/02 10:46:11;;;;;;;52.90;25.50;;;;;;;9.55;41.13;99639.65;235064;1194;141972;-68
2023/03/02 10:51:26;;;;;;;40.70;23.90;;;;;;;9.83;40.94;99635.97;234942;1193;138937;-65
2023/03/02 10:56:30;;;;;;;43.10;24.40;;;;;;;10.08;40.68;99622.66;234919;1196;139183;-65
2023/03/02 11:01:34;;;;;;;36.20;22.40;;;;;;;10.34;39.90;99616.95;235132;1193;139933;-64
2023/03/02 11:06:38;;;;;;;37.10;22.80;;;;;;;10.51;39.82;99612.48;234950;1195;139170;-66
2023/03/02 11:11:50;;;;;;;164.80;116.30;;;;;;;10.66;39.17;99608.90;234997;1193;139485;-66
2023/03/02 11:16:55;;;;;;;44.10;27.50;;;;;;;10.81;38.51;99597.61;235206;1193;139488;-65
2023/03/02 11:22:52;;;;;;;27.30;18.90;;;;;;;10.87;38.43;99590.91;234968;1193;138854;-65
2023/03/02 11:28:04;;;;;;;29.80;18.40;;;;;;;11.00;37.85;99580.56;234760;1197;139821;-69
2023/03/02 11:33:17;;;;;;;28.90;17.40;;;;;;;11.08;37.37;99573.60;235051;1193;139330;-67
2023/03/02 11:38:40;;;;;;;26.70;15.40;;;;;;;11.18;38.58;99565.92;235110;1192;140074;-66
2023/03/02 11:43:43;;;;;;;24.00;14.90;;;;;;;11.27;36.26;99556.89;235152;1193;139459;-66
2023/03/02 11:48:51;;;;;;;27.50;15.70;;;;;;;11.17;35.57;99552.48;234981;1197;139344;-66
2023/03/02 11:54:18;;;;;;;22.00;12.90;;;;;;;11.13;35.15;99550.41;235096;1193;138865;-66
2023/03/02 11:59:22;;;;;;;24.00;14.40;;;;;;;11.24;35.32;99547.48;235127;1192;140021;-66
2023/03/02 12:04:37;;;;;;;21.80;13.60;;;;;;;11.41;35.28;99540.27;235097;1194;140977;-69
2023/03/02 12:09:41;;;;;;;23.60;14.80;;;;;;;11.64;35.32;99536.80;235086;1195;139172;-69
2023/03/02 12:14:44;;;;;;;288.90;203.00;;;;;;;11.92;35.43;99528.06;234904;1193;139380;-67
2023/03/02 12:19:54;;;;;;;20.20;13.20;;;;;;;12.12;35.03;99526.35;235015;1193;139929;-67
2023/03/02 12:25:17;;;;;;;21.10;13.30;;;;;;;12.29;34.65;99516.75;235193;1193;138865;-66
2023/03/02 12:30:26;;;;;;;28.80;17.90;;;;;;;12.36;34.82;99510.69;235098;1193;139192;-66
2023/03/02 12:35:32;;;;;;;30.90;20.30;;;;;;;12.29;35.31;99506.25;235103;1193;139437;-66
2023/03/02 12:40:56;;;;;;;32.00;19.60;;;;;;;12.30;35.88;99500.52;235200;1193;139439;-68
2023/03/02 12:46:30;;;;;;;26.60;17.90;;;;;;;12.29;36.06;99491.11;235000;1193;139001;-67
2023/03/02 12:52:18;;;;;;;29.30;17.90;;;;;;;12.31;36.07;99486.55;235115;1196;139488;-68
2023/03/02 12:57:26;;;;;;;26.20;18.00;;;;;;;12.40;36.41;99473.17;234911;1195;138827;-67
2023/03/02 13:02:34;;;;;;;27.10;18.20;;;;;;;12.42;36.16;99471.98;234957;1194;140170;-70
2023/03/02 13:07:49;;;;;;;32.00;19.60;;;;;;;12.44;36.45;99463.16;234851;1193;139694;-70
2023/03/02 13:12:52;;;;;;;29.20;18.30;;;;;;;12.49;36.04;99458.95;234987;1195;138952;-70
2023/03/02 13:17:58;;;;;;;31.60;18.80;;;;;;;12.62;36.26;99455.60;234994;1193;139412;-68
2023/03/02 13:23:02;;;;;;;32.00;18.70;;;;;;;12.77;35.50;99444.86;235086;1193;139653;-70
2023/03/02 13:28:33;;;;;;;30.50;19.70;;;;;;;12.94;35.70;99440.19;235194;1192;139838;-69
2023/03/02 13:33:43;;;;;;;29.80;18.80;;;;;;;13.22;35.15;99434.61;235031;1193;139052;-69
2023/03/02 13:38:51;;;;;;;27.70;17.80;;;;;;;13.44;34.65;99425.64;235019;1193;139366;-69
2023/03/02 13:43:55;;;;;;;27.50;17.10;;;;;;;13.40;34.65;99425.23;234934;1193;139313;-69
2023/03/02 13:49:04;;;;;;;28.80;16.70;;;;;;;13.13;34.77;99421.46;234860;1194;139435;-69
2023/03/02 13:54:15;;;;;;;25.80;16.50;;;;;;;12.69;34.80;99414.05;234912;1194;139261;-69
2023/03/02 13:59:20;;;;;;;512.10;395.10;;;;;;;12.29;35.51;99413.95;234974;1193;139622;-69
2023/03/02 14:04:24;;;;;;;26.10;17.80;;;;;;;12.12;36.44;99411.80;235239;1193;139154;-69
2023/03/02 14:09:27;;;;;;;21.70;13.70;;;;;;;11.86;36.02;99403.95;235023;1196;139019;-69
2023/03/02 14:14:36;;;;;;;17.70;10.90;;;;;;;11.57;36.11;99397.34;235002;1193;139298;-69
2023/03/02 14:19:40;;;;;;;18.60;12.10;;;;;;;11.31;36.40;99393.59;234950;1198;139391;-68
2023/03/02 14:24:44;;;;;;;20.10;12.00;;;;;;;11.05;37.18;99390.48;235140;1193;139519;-68
2023/03/02 14:29:48;;;;;;;21.50;13.30;;;;;;;10.85;38.02;99394.33;235059;1193;138979;-68
2023/03/02 14:34:51;;;;;;;23.30;14.20;;;;;;;10.71;38.45;99389.12;235120;1195;139867;-68
2023/03/02 14:39:55;;;;;;;75.50;54.30;;;;;;;10.60;39.62;99386.67;235170;1192;138890;-68
2023/03/02 14:44:59;;;;;;;23.40;14.80;;;;;;;10.54;39.74;99384.20;235122;1194;139703;-67
2023/03/02 14:50:04;;;;;;;23.90;14.40;;;;;;;10.41;39.89;99388.13;234810;1197;140498;-69
2023/03/02 14:55:31;;;;;;;20.70;13.40;;;;;;;10.31;39.84;99388.35;235020;1193;139090;-68
2023/03/02 15:00:35;;;;;;;19.80;13.60;;;;;;;10.21;40.21;99385.45;234995;1193;139967;-68
2023/03/02 15:05:38;;;;;;;22.60;13.20;;;;;;;10.09;40.45;99379.20;234891;1198;140278;-67
2023/03/02 15:10:49;;;;;;;21.90;13.90;;;;;;;9.97;40.94;99377.02;235025;1194;138717;-67
2023/03/02 15:15:53;;;;;;;22.30;14.90;;;;;;;9.85;41.24;99375.01;235058;1193;139688;-68
2023/03/02 15:20:56;;;;;;;22.50;14.70;;;;;;;9.74;41.22;99378.77;234970;1193;140818;-67
2023/03/02 15:26:01;;;;;;;24.60;15.10;;;;;;;9.67;41.69;99372.98;235146;1194;138870;-67
2023/03/02 15:31:13;;;;;;;22.90;14.20;;;;;;;9.59;41.84;99371.42;235115;1194;140846;-67
2023/03/02 15:36:16;;;;;;;26.10;15.00;;;;;;;9.51;41.92;99376.42;235014;1194;139695;-68
2023/03/02 15:41:20;;;;;;;29.00;15.50;;;;;;;9.44;42.06;99377.19;235001;1196;139338;-68
2023/03/02 15:46:24;;;;;;;24.50;15.10;;;;;;;9.37;42.50;99373.83;235300;1193;139917;-68
2023/03/02 15:51:27;;;;;;;24.70;14.90;;;;;;;9.31;43.00;99377.70;234988;1194;140061;-68
2023/03/02 15:56:30;;;;;;;30.90;15.80;;;;;;;9.23;42.93;99374.73;233925;1196;138960;-69
2023/03/02 16:01:44;;;;;;;26.70;14.90;;;;;;;9.13;43.27;99375.23;235115;1193;139696;-68
2023/03/02 16:06:48;;;;;;;23.70;15.10;;;;;;;9.04;43.42;99375.52;234921;1193;140006;-68
2023/03/02 16:11:51;;;;;;;27.00;14.60;;;;;;;9.00;43.77;99380.16;235150;1193;138881;-68
2023/03/02 16:16:55;;;;;;;27.50;15.30;;;;;;;8.85;43.97;99374.17;235179;1198;139889;-67
2023/03/02 16:21:58;;;;;;;26.90;14.70;;;;;;;8.70;44.30;99376.11;234911;1194;139959;-68
2023/03/02 16:27:03;;;;;;;27.20;15.50;;;;;;;8.59;44.59;99376.50;234948;1193;138364;-68
2023/03/02 16:32:07;;;;;;;32.30;16.20;;;;;;;8.49;44.98;99375.05;235160;1198;139393;-69
2023/03/02 16:37:11;;;;;;;31.00;15.30;;;;;;;8.39;45.15;99378.14;234954;1198;139616;-69
2023/03/02 16:42:15;;;;;;;28.50;14.90;;;;;;;8.31;45.43;99382.04;234982;1196;138901;-71
2023/03/02 16:47:18;;;;;;;32.10;16.90;;;;;;;8.23;45.71;99386.85;235376;1192;139355;-70
2023/03/02 16:52:22;;;;;;;31.90;14.90;;;;;;;8.13;45.87;99385.52;235130;1193;139189;-68
2023/03/02 16:57:26;;;;;;;33.20;15.40;;;;;;;8.01;46.23;99386.61;234975;1194;138700;-69
2023/03/02 17:02:29;;;;;;;112.20;77.40;;;;;;;7.90;46.63;99391.18;234995;1194;138518;-69
2023/03/02 17:07:33;;;;;;;28.80;15.80;;;;;;;7.94;46.96;99394.19;234848;1193;140141;-69
2023/03/02 17:12:37;;;;;;;33.10;14.90;;;;;;;7.80;46.97;99403.31;234844;1198;138967;-68
2023/03/02 17:17:41;;;;;;;28.60;14.90;;;;;;;7.63;47.11;99402.65;234942;1193;139246;-69
2023/03/02 17:22:45;;;;;;;27.90;15.00;;;;;;;7.49;47.40;99405.19;235063;1195;139896;-68
2023/03/02 17:27:49;;;;;;;26.90;15.60;;;;;;;7.36;47.59;99408.08;234918;1196;139307;-69
2023/03/02 17:32:52;;;;;;;31.40;16.70;;;;;;;7.27;47.81;99414.25;234964;1193;140358;-68
2023/03/02 17:37:55;;;;;;;31.70;16.70;;;;;;;7.20;48.03;99409.27;234871;1196;139569;-68
2023/03/02 17:42:59;;;;;;;31.30;16.80;;;;;;;7.10;48.31;99407.40;234971;1194;138960;-68
2023/03/02 17:48:03;;;;;;;76.40;48.80;;;;;;;7.00;48.80;99412.23;234872;1197;139428;-69
2023/03/02 17:53:07;;;;;;;53.00;25.50;;;;;;;6.97;49.62;99415.19;235067;1194;139380;-68
2023/03/02 17:58:10;;;;;;;48.70;25.20;;;;;;;6.90;49.81;99413.16;234992;1197;138798;-68
2023/03/02 18:03:14;;;;;;;53.30;31.40;;;;;;;6.83;49.96;99416.79;235028;1193;140613;-68
2023/03/02 18:08:17;;;;;;;64.30;36.10;;;;;;;6.78;50.47;99416.98;234933;1198;139123;-67
2023/03/02 18:13:20;;;;;;;62.70;36.50;;;;;;;6.72;50.68;99413.00;234872;1194;138852;-66
2023/03/02 18:18:24;;;;;;;67.80;36.00;;;;;;;6.63;51.15;99413.54;235008;1198;139899;-68
2023/03/02 18:23:28;;;;;;;60.90;34.90;;;;;;;6.54;51.86;99414.79;235122;1197;138800;-66
2023/03/02 18:28:31;;;;;;;67.10;34.90;;;;;;;6.47;52.18;99415.59;235203;1196;138991;-67
2023/03/02 18:33:34;;;;;;;60.00;35.00;;;;;;;6.40;52.80;99415.35;235077;1193;139424;-67
2023/03/02 18:38:37;;;;;;;62.10;35.50;;;;;;;6.33;53.30;99422.66;235226;1195;138789;-67
2023/03/02 18:43:42;;;;;;;64.40;35.70;;;;;;;6.28;53.58;99418.98;235191;1197;138676;-67
2023/03/02 18:48:49;;;;;;;66.00;35.80;;;;;;;6.22;53.88;99419.55;234980;1193;140032;-67
2023/03/02 18:53:53;;;;;;;57.50;33.70;;;;;;;6.17;54.57;99416.74;234876;1198;138586;-66
2023/03/02 18:58:56;;;;;;;60.50;35.50;;;;;;;6.11;54.98;99421.20;235034;1197;139110;-66
2023/03/02 19:04:01;;;;;;;62.00;35.00;;;;;;;6.07;55.49;99423.13;235029;1193;139350;-66
2023/03/02 19:09:04;;;;;;;57.80;33.80;;;;;;;6.02;55.91;99426.81;235009;1198;139350;-68
2023/03/02 19:14:08;;;;;;;58.80;34.30;;;;;;;5.99;56.05;99426.61;234938;1197;139436;-68
2023/03/02 19:19:12;;;;;;;350.30;228.80;;;;;;;6.00;57.15;99423.55;235075;1193;140228;-67
2023/03/02 19:24:16;;;;;;;74.80;43.90;;;;;;;6.22;57.08;99427.68;234968;1194;139458;-68
2023/03/02 19:29:20;;;;;;;62.90;36.30;;;;;;;6.15;56.25;99423.17;234987;1198;139885;-67
2023/03/02 19:34:24;;;;;;;59.30;35.00;;;;;;;6.04;56.40;99428.53;235177;1197;139487;-65
2023/03/02 19:39:27;;;;;;;63.40;35.90;;;;;;;5.95;56.67;99429.73;235110;1194;138755;-65
2023/03/02 19:44:32;;;;;;;70.20;38.50;;;;;;;5.88;56.84;99431.20;235060;1193;140780;-66
2023/03/02 19:49:36;;;;;;;67.90;38.40;;;;;;;5.81;56.88;99431.95;235086;1194;138602;-67
2023/03/02 19:54:42;;;;;;;60.20;36.50;;;;;;;5.77;56.83;99429.13;235076;1193;139594;-69
2023/03/02 19:59:45;;;;;;;62.60;35.90;;;;;;;5.66;57.02;99431.61;235036;1195;139730;-71
2023/03/02 20:04:49;;;;;;;60.40;35.80;;;;;;;5.58;57.50;99430.14;234983;1197;139265;-71
2023/03/02 20:09:53;;;;;;;64.00;34.90;;;;;;;5.51;57.37;99428.29;235086;1193;139698;-69
2023/03/02 20:14:56;;;;;;;57.10;33.40;;;;;;;5.42;57.75;99430.70;234972;1198;138708;-69
2023/03/02 20:20:02;;;;;;;62.10;35.40;;;;;;;5.36;57.51;99433.73;235075;1198;139450;-70
2023/03/02 20:25:07;;;;;;;;;;;;;;;5.28;58.04;99434.36;234975;1197;140075;-71
2023/03/02 20:30:21;;;;;;;65.80;36.40;;;;;;;5.22;58.15;99434.56;235205;1199;124840;-72
2023/03/02 20:35:28;;;;;;;61.40;35.80;;;;;;;5.11;58.34;99428.41;234965;1195;139410;-72
2023/03/02 20:40:32;;;;;;;63.90;37.20;;;;;;;5.06;58.02;99427.39;235107;1193;139377;-71
2023/03/02 20:45:36;;;;;;;64.40;36.90;;;;;;;4.97;58.31;99427.81;235084;1198;139374;-70
2023/03/02 20:50:41;;;;;;;61.50;36.40;;;;;;;4.91;58.69;99424.17;235062;1193;139246;-71
2023/03/02 20:55:44;;;;;;;60.70;36.30;;;;;;;4.84;58.97;99418.09;235005;1193;139143;-71
2023/03/02 21:00:48;;;;;;;58.20;34.90;;;;;;;4.77;59.00;99415.33;235033;1193;139977;-71
2023/03/02 21:05:51;;;;;;;60.10;36.00;;;;;;;4.73;59.53;99408.24;235107;1194;138884;-71
2023/03/02 21:10:54;;;;;;;55.60;34.30;;;;;;;4.71;59.60;99406.19;235119;1193;139300;-71
2023/03/02 21:15:59;;;;;;;65.90;36.20;;;;;;;4.70;59.82;99407.09;235034;1193;139255;-71
2023/03/02 21:21:02;;;;;;;61.60;36.00;;;;;;;4.69;59.85;99401.69;235183;1193;139218;-70
2023/03/02 21:26:10;;;;;;;60.50;35.30;;;;;;;4.67;59.77;99398.05;235124;1194;139953;-71
2023/03/02 21:31:16;;;;;;;65.20;37.30;;;;;;;4.62;59.70;99396.64;235153;1198;138850;-71
2023/03/02 21:36:23;;;;;;;64.20;36.20;;;;;;;4.58;59.72;99393.62;235073;1199;139905;-71
2023/03/02 21:41:26;;;;;;;66.80;38.30;;;;;;;4.54;59.94;99389.34;235071;1199;140926;-71
2023/03/02 21:46:32;;;;;;;68.20;37.50;;;;;;;4.48;60.14;99383.39;235191;1193;138616;-69
2023/03/02 21:51:37;;;;;;;67.90;38.80;;;;;;;4.40;60.07;99378.89;234934;1196;139496;-69
2023/03/02 21:56:41;;;;;;;67.20;38.30;;;;;;;4.34;60.12;99380.67;235016;1199;138770;-69
2023/03/02 22:01:45;;;;;;;66.80;39.20;;;;;;;4.26;60.08;99377.39;234972;1199;138901;-69
2023/03/02 22:06:48;;;;;;;66.40;38.90;;;;;;;4.22;60.36;99378.05;235105;1197;139298;-68
2023/03/02 22:11:52;;;;;;;65.70;37.70;;;;;;;4.15;60.17;99376.34;235065;1195;138678;-68
2023/03/02 22:16:57;;;;;;;65.20;38.20;;;;;;;4.07;60.54;99371.67;235260;1196;138977;-68
2023/03/02 22:22:02;;;;;;;63.90;38.10;;;;;;;4.00;60.57;99365.91;234981;1197;139797;-72
2023/03/02 22:27:20;;;;;;;67.50;38.40;;;;;;;3.92;60.67;99357.36;234827;1196;138685;-69
2023/03/02 22:32:29;;;;;;;67.00;39.20;;;;;;;3.83;60.70;99353.06;235177;1194;139124;-69
2023/03/02 22:37:33;;;;;;;62.50;38.50;;;;;;;3.78;60.70;99349.17;235054;1193;140559;-69
2023/03/02 22:42:37;;;;;;;67.00;38.80;;;;;;;3.73;61.14;99346.15;235079;1198;138692;-69
2023/03/02 22:47:46;;;;;;;61.50;38.90;;;;;;;3.68;61.18;99344.20;235247;1193;138719;-69
2023/03/02 22:52:52;;;;;;;67.40;39.30;;;;;;;3.64;60.97;99349.59;235293;1193;138958;-71
2023/03/02 22:57:55;;;;;;;66.20;38.80;;;;;;;3.59;61.15;99345.18;234993;1193;140036;-71
2023/03/02 23:02:59;;;;;;;66.50;38.40;;;;;;;3.57;61.68;99342.41;235012;1196;138874;-71
2023/03/02 23:08:22;;;;;;;61.10;38.50;;;;;;;3.58;61.86;99340.63;235017;1193;139472;-71